sensor_id;sensor_type;location;lat;lon;timestamp;P1;durP1;ratioP1;P2;durP2;ratioP2
39022;SDS011;25908;51.984;5.928;2022-12-18T00:00:31;62.92;;;31.30;;
39022;SDS011;25908;51.984;5.928;2022-12-18T00:02:57;64.35;;;32.33;;
39022;SDS011;25908;51.984;5.928;2022-12-18T00:05:22;70.85;;;33.45;;
39022;SDS011;25908;51.984;5.928;2022-12-18T00:07:48;73.65;;;33.08;;
39022;SDS011;25908;51.984;5.928;2022-12-18T00:10:14;57.90;;;30.17;;
39022;SDS011;25908;51.984;5.928;2022-12-18T00:12:39;59.13;;;30.13;;
39022;SDS011;25908;51.984;5.928;2022-12-18T00:15:05;64.38;;;32.08;;
39022;SDS011;25908;51.984;5.928;2022-12-18T00:17:31;65.30;;;31.30;;
39022;SDS011;25908;51.984;5.928;2022-12-18T00:19:56;60.70;;;29.75;;
39022;SDS011;25908;51.984;5.928;2022-12-18T00:22:22;59.15;;;29.60;;
39022;SDS011;25908;51.984;5.928;2022-12-18T00:24:47;63.95;;;31.35;;
39022;SDS011;25908;51.984;5.928;2022-12-18T00:27:13;61.63;;;29.85;;
39022;SDS011;25908;51.984;5.928;2022-12-18T00:29:38;58.28;;;29.15;;
39022;SDS011;25908;51.984;5.928;2022-12-18T00:32:04;61.42;;;30.02;;
39022;SDS011;25908;51.984;5.928;2022-12-18T00:34:30;61.95;;;30.38;;
39022;SDS011;25908;51.984;5.928;2022-12-18T00:36:55;58.67;;;29.20;;
39022;SDS011;25908;51.984;5.928;2022-12-18T00:39:21;67.57;;;31.55;;
39022;SDS011;25908;51.984;5.928;2022-12-18T00:41:46;59.45;;;30.05;;
39022;SDS011;25908;51.984;5.928;2022-12-18T00:44:31;55.53;;;27.48;;
39022;SDS011;25908;51.984;5.928;2022-12-18T00:46:57;58.75;;;29.60;;
39022;SDS011;25908;51.984;5.928;2022-12-18T00:49:22;59.65;;;29.67;;
39022;SDS011;25908;51.984;5.928;2022-12-18T00:51:48;56.60;;;28.52;;
39022;SDS011;25908;51.984;5.928;2022-12-18T00:54:14;54.28;;;28.10;;
39022;SDS011;25908;51.984;5.928;2022-12-18T00:56:40;66.60;;;30.77;;
39022;SDS011;25908;51.984;5.928;2022-12-18T00:59:05;57.10;;;29.42;;
39022;SDS011;25908;51.984;5.928;2022-12-18T01:01:31;63.55;;;29.75;;
39022;SDS011;25908;51.984;5.928;2022-12-18T01:03:57;61.25;;;29.13;;
39022;SDS011;25908;51.984;5.928;2022-12-18T01:06:24;63.13;;;29.15;;
39022;SDS011;25908;51.984;5.928;2022-12-18T01:08:50;60.47;;;28.85;;
39022;SDS011;25908;51.984;5.928;2022-12-18T01:11:17;59.53;;;28.65;;
39022;SDS011;25908;51.984;5.928;2022-12-18T01:13:43;50.33;;;25.73;;
39022;SDS011;25908;51.984;5.928;2022-12-18T01:16:11;56.67;;;27.63;;
39022;SDS011;25908;51.984;5.928;2022-12-18T01:18:37;51.42;;;26.70;;
39022;SDS011;25908;51.984;5.928;2022-12-18T01:21:10;54.97;;;26.70;;
39022;SDS011;25908;51.984;5.928;2022-12-18T01:23:37;58.10;;;26.50;;
39022;SDS011;25908;51.984;5.928;2022-12-18T01:26:10;49.58;;;26.20;;
39022;SDS011;25908;51.984;5.928;2022-12-18T01:28:38;50.75;;;25.77;;
39022;SDS011;25908;51.984;5.928;2022-12-18T01:31:15;57.13;;;26.65;;
39022;SDS011;25908;51.984;5.928;2022-12-18T01:33:46;56.60;;;26.80;;
39022;SDS011;25908;51.984;5.928;2022-12-18T01:36:15;51.53;;;25.55;;
39022;SDS011;25908;51.984;5.928;2022-12-18T01:38:42;52.75;;;26.30;;
39022;SDS011;25908;51.984;5.928;2022-12-18T01:41:08;63.60;;;29.02;;
39022;SDS011;25908;51.984;5.928;2022-12-18T01:43:40;75.28;;;29.85;;
39022;SDS011;25908;51.984;5.928;2022-12-18T01:46:07;53.00;;;26.58;;
39022;SDS011;25908;51.984;5.928;2022-12-18T01:48:32;57.20;;;27.15;;
39022;SDS011;25908;51.984;5.928;2022-12-18T01:51:00;57.17;;;28.55;;
39022;SDS011;25908;51.984;5.928;2022-12-18T01:53:26;53.80;;;26.88;;
39022;SDS011;25908;51.984;5.928;2022-12-18T01:55:53;58.60;;;28.45;;
39022;SDS011;25908;51.984;5.928;2022-12-18T01:58:30;59.35;;;28.50;;
39022;SDS011;25908;51.984;5.928;2022-12-18T02:01:04;56.47;;;26.38;;
39022;SDS011;25908;51.984;5.928;2022-12-18T02:03:30;57.33;;;26.42;;
39022;SDS011;25908;51.984;5.928;2022-12-18T02:06:06;54.22;;;25.75;;
39022;SDS011;25908;51.984;5.928;2022-12-18T02:08:54;56.47;;;26.83;;
39022;SDS011;25908;51.984;5.928;2022-12-18T02:11:40;53.40;;;25.48;;
39022;SDS011;25908;51.984;5.928;2022-12-18T02:27:30;50.72;;;23.55;;
39022;SDS011;25908;51.984;5.928;2022-12-18T02:29:58;50.17;;;23.38;;
39022;SDS011;25908;51.984;5.928;2022-12-18T02:32:27;51.30;;;25.58;;
39022;SDS011;25908;51.984;5.928;2022-12-18T02:34:56;52.22;;;24.75;;
39022;SDS011;25908;51.984;5.928;2022-12-18T02:37:23;51.60;;;24.45;;
39022;SDS011;25908;51.984;5.928;2022-12-18T02:39:52;48.95;;;23.63;;
39022;SDS011;25908;51.984;5.928;2022-12-18T02:42:21;54.58;;;25.02;;
39022;SDS011;25908;51.984;5.928;2022-12-18T02:44:48;50.28;;;24.70;;
39022;SDS011;25908;51.984;5.928;2022-12-18T02:47:16;49.83;;;24.73;;
39022;SDS011;25908;51.984;5.928;2022-12-18T03:03:36;48.97;;;23.38;;
39022;SDS011;25908;51.984;5.928;2022-12-18T03:06:09;46.78;;;23.02;;
39022;SDS011;25908;51.984;5.928;2022-12-18T03:08:41;42.72;;;22.15;;
39022;SDS011;25908;51.984;5.928;2022-12-18T03:11:11;46.38;;;22.10;;
39022;SDS011;25908;51.984;5.928;2022-12-18T03:16:25;46.65;;;22.55;;
39022;SDS011;25908;51.984;5.928;2022-12-18T03:21:23;44.97;;;22.40;;
39022;SDS011;25908;51.984;5.928;2022-12-18T03:26:21;44.80;;;22.40;;
39022;SDS011;25908;51.984;5.928;2022-12-18T03:28:57;44.88;;;22.05;;
39022;SDS011;25908;51.984;5.928;2022-12-18T03:31:33;42.03;;;22.45;;
39022;SDS011;25908;51.984;5.928;2022-12-18T03:34:04;41.75;;;21.05;;
39022;SDS011;25908;51.984;5.928;2022-12-18T03:36:33;44.45;;;22.52;;
39022;SDS011;25908;51.984;5.928;2022-12-18T03:38:59;41.28;;;20.85;;
39022;SDS011;25908;51.984;5.928;2022-12-18T03:41:30;42.65;;;21.77;;
39022;SDS011;25908;51.984;5.928;2022-12-18T03:44:12;44.05;;;20.58;;
39022;SDS011;25908;51.984;5.928;2022-12-18T03:55:22;36.42;;;19.77;;
39022;SDS011;25908;51.984;5.928;2022-12-18T03:57:52;37.60;;;18.67;;
39022;SDS011;25908;51.984;5.928;2022-12-18T04:00:18;37.55;;;18.45;;
39022;SDS011;25908;51.984;5.928;2022-12-18T04:02:46;34.42;;;18.88;;
39022;SDS011;25908;51.984;5.928;2022-12-18T04:05:15;36.58;;;17.17;;
39022;SDS011;25908;51.984;5.928;2022-12-18T04:07:42;33.35;;;17.50;;
39022;SDS011;25908;51.984;5.928;2022-12-18T04:10:10;34.58;;;17.77;;
39022;SDS011;25908;51.984;5.928;2022-12-18T04:12:38;31.77;;;17.45;;
39022;SDS011;25908;51.984;5.928;2022-12-18T04:15:04;38.67;;;18.98;;
39022;SDS011;25908;51.984;5.928;2022-12-18T04:17:30;36.72;;;17.23;;
39022;SDS011;25908;51.984;5.928;2022-12-18T04:19:56;38.22;;;17.75;;
39022;SDS011;25908;51.984;5.928;2022-12-18T04:22:22;34.42;;;18.17;;
39022;SDS011;25908;51.984;5.928;2022-12-18T04:24:47;35.95;;;17.15;;
39022;SDS011;25908;51.984;5.928;2022-12-18T04:27:13;31.45;;;16.88;;
39022;SDS011;25908;51.984;5.928;2022-12-18T04:29:39;31.15;;;15.60;;
39022;SDS011;25908;51.984;5.928;2022-12-18T04:32:05;34.80;;;17.33;;
39022;SDS011;25908;51.984;5.928;2022-12-18T04:34:30;37.80;;;18.40;;
39022;SDS011;25908;51.984;5.928;2022-12-18T04:36:56;31.35;;;15.25;;
39022;SDS011;25908;51.984;5.928;2022-12-18T04:39:21;31.17;;;16.40;;
39022;SDS011;25908;51.984;5.928;2022-12-18T04:41:47;35.10;;;16.98;;
39022;SDS011;25908;51.984;5.928;2022-12-18T04:44:13;35.35;;;16.85;;
39022;SDS011;25908;51.984;5.928;2022-12-18T04:46:38;28.63;;;15.10;;
39022;SDS011;25908;51.984;5.928;2022-12-18T04:49:04;31.25;;;15.57;;
39022;SDS011;25908;51.984;5.928;2022-12-18T04:51:30;29.05;;;14.52;;
39022;SDS011;25908;51.984;5.928;2022-12-18T04:53:55;28.95;;;14.93;;
39022;SDS011;25908;51.984;5.928;2022-12-18T04:56:21;28.80;;;14.82;;
39022;SDS011;25908;51.984;5.928;2022-12-18T04:58:47;28.45;;;15.77;;
39022;SDS011;25908;51.984;5.928;2022-12-18T05:01:14;29.50;;;14.75;;
39022;SDS011;25908;51.984;5.928;2022-12-18T05:03:41;27.65;;;13.90;;
39022;SDS011;25908;51.984;5.928;2022-12-18T05:06:07;31.58;;;14.80;;
39022;SDS011;25908;51.984;5.928;2022-12-18T05:08:33;29.88;;;13.40;;
39022;SDS011;25908;51.984;5.928;2022-12-18T05:10:59;26.95;;;14.40;;
39022;SDS011;25908;51.984;5.928;2022-12-18T05:13:28;29.98;;;14.25;;
39022;SDS011;25908;51.984;5.928;2022-12-18T05:15:54;26.23;;;13.60;;
39022;SDS011;25908;51.984;5.928;2022-12-18T05:18:20;24.63;;;14.40;;
39022;SDS011;25908;51.984;5.928;2022-12-18T05:20:46;27.02;;;14.27;;
39022;SDS011;25908;51.984;5.928;2022-12-18T05:23:12;26.52;;;13.75;;
39022;SDS011;25908;51.984;5.928;2022-12-18T05:25:38;24.15;;;13.15;;
39022;SDS011;25908;51.984;5.928;2022-12-18T05:28:03;23.80;;;12.82;;
39022;SDS011;25908;51.984;5.928;2022-12-18T05:30:29;27.85;;;13.48;;
39022;SDS011;25908;51.984;5.928;2022-12-18T05:32:54;26.02;;;13.82;;
39022;SDS011;25908;51.984;5.928;2022-12-18T05:35:20;27.50;;;13.80;;
39022;SDS011;25908;51.984;5.928;2022-12-18T05:37:46;25.73;;;13.48;;
39022;SDS011;25908;51.984;5.928;2022-12-18T05:40:11;23.75;;;12.90;;
39022;SDS011;25908;51.984;5.928;2022-12-18T05:42:37;25.98;;;12.98;;
39022;SDS011;25908;51.984;5.928;2022-12-18T05:45:04;23.95;;;13.52;;
39022;SDS011;25908;51.984;5.928;2022-12-18T05:47:30;25.35;;;13.70;;
39022;SDS011;25908;51.984;5.928;2022-12-18T05:49:56;24.38;;;13.52;;
39022;SDS011;25908;51.984;5.928;2022-12-18T05:52:21;22.48;;;12.45;;
39022;SDS011;25908;51.984;5.928;2022-12-18T05:54:47;22.45;;;12.68;;
39022;SDS011;25908;51.984;5.928;2022-12-18T05:57:13;22.58;;;12.48;;
39022;SDS011;25908;51.984;5.928;2022-12-18T05:59:39;25.98;;;13.38;;
39022;SDS011;25908;51.984;5.928;2022-12-18T06:02:04;22.90;;;12.60;;
39022;SDS011;25908;51.984;5.928;2022-12-18T06:04:30;23.65;;;12.68;;
39022;SDS011;25908;51.984;5.928;2022-12-18T06:06:56;22.88;;;12.57;;
39022;SDS011;25908;51.984;5.928;2022-12-18T06:09:22;23.70;;;12.23;;
39022;SDS011;25908;51.984;5.928;2022-12-18T06:11:48;25.25;;;13.63;;
39022;SDS011;25908;51.984;5.928;2022-12-18T06:14:16;25.52;;;12.45;;
39022;SDS011;25908;51.984;5.928;2022-12-18T06:16:42;24.73;;;13.45;;
39022;SDS011;25908;51.984;5.928;2022-12-18T06:19:07;28.10;;;13.82;;
39022;SDS011;25908;51.984;5.928;2022-12-18T06:21:38;26.75;;;13.52;;
39022;SDS011;25908;51.984;5.928;2022-12-18T06:24:04;26.95;;;13.95;;
39022;SDS011;25908;51.984;5.928;2022-12-18T06:26:29;28.20;;;14.23;;
39022;SDS011;25908;51.984;5.928;2022-12-18T06:28:55;24.98;;;14.10;;
39022;SDS011;25908;51.984;5.928;2022-12-18T06:31:21;25.92;;;13.18;;
39022;SDS011;25908;51.984;5.928;2022-12-18T06:33:46;24.08;;;13.45;;
39022;SDS011;25908;51.984;5.928;2022-12-18T06:36:12;24.08;;;14.13;;
39022;SDS011;25908;51.984;5.928;2022-12-18T06:38:39;25.27;;;13.55;;
39022;SDS011;25908;51.984;5.928;2022-12-18T06:41:14;29.10;;;14.30;;
39022;SDS011;25908;51.984;5.928;2022-12-18T06:43:41;26.75;;;14.05;;
39022;SDS011;25908;51.984;5.928;2022-12-18T06:46:07;28.52;;;15.20;;
39022;SDS011;25908;51.984;5.928;2022-12-18T06:48:33;24.25;;;13.43;;
39022;SDS011;25908;51.984;5.928;2022-12-18T06:50:59;25.63;;;14.40;;
39022;SDS011;25908;51.984;5.928;2022-12-18T06:53:25;23.17;;;13.15;;
39022;SDS011;25908;51.984;5.928;2022-12-18T06:55:51;24.60;;;13.75;;
39022;SDS011;25908;51.984;5.928;2022-12-18T06:58:16;23.85;;;13.20;;
39022;SDS011;25908;51.984;5.928;2022-12-18T07:00:42;24.30;;;13.23;;
39022;SDS011;25908;51.984;5.928;2022-12-18T07:03:08;22.05;;;13.68;;
39022;SDS011;25908;51.984;5.928;2022-12-18T07:05:33;24.17;;;12.95;;
39022;SDS011;25908;51.984;5.928;2022-12-18T07:07:59;26.73;;;14.43;;
39022;SDS011;25908;51.984;5.928;2022-12-18T07:10:24;24.40;;;13.63;;
39022;SDS011;25908;51.984;5.928;2022-12-18T07:12:50;24.02;;;13.30;;
39022;SDS011;25908;51.984;5.928;2022-12-18T07:15:16;25.88;;;13.60;;
39022;SDS011;25908;51.984;5.928;2022-12-18T07:17:41;27.60;;;14.95;;
39022;SDS011;25908;51.984;5.928;2022-12-18T07:20:07;24.92;;;13.10;;
39022;SDS011;25908;51.984;5.928;2022-12-18T07:22:33;25.27;;;13.10;;
39022;SDS011;25908;51.984;5.928;2022-12-18T07:24:59;22.83;;;13.05;;
39022;SDS011;25908;51.984;5.928;2022-12-18T07:27:25;23.10;;;12.50;;
39022;SDS011;25908;51.984;5.928;2022-12-18T07:29:50;25.58;;;13.77;;
39022;SDS011;25908;51.984;5.928;2022-12-18T07:32:17;23.35;;;12.68;;
39022;SDS011;25908;51.984;5.928;2022-12-18T07:34:43;24.35;;;12.30;;
39022;SDS011;25908;51.984;5.928;2022-12-18T07:37:08;21.70;;;12.57;;
39022;SDS011;25908;51.984;5.928;2022-12-18T07:39:34;27.42;;;13.85;;
39022;SDS011;25908;51.984;5.928;2022-12-18T07:42:00;46.13;;;19.65;;
39022;SDS011;25908;51.984;5.928;2022-12-18T07:44:44;31.65;;;16.20;;
39022;SDS011;25908;51.984;5.928;2022-12-18T07:47:10;32.38;;;17.45;;
39022;SDS011;25908;51.984;5.928;2022-12-18T07:49:35;49.53;;;22.77;;
39022;SDS011;25908;51.984;5.928;2022-12-18T07:52:01;37.00;;;18.20;;
39022;SDS011;25908;51.984;5.928;2022-12-18T07:54:27;33.00;;;18.40;;
39022;SDS011;25908;51.984;5.928;2022-12-18T07:56:52;26.25;;;14.80;;
39022;SDS011;25908;51.984;5.928;2022-12-18T07:59:18;26.25;;;13.45;;
39022;SDS011;25908;51.984;5.928;2022-12-18T08:01:44;22.60;;;12.43;;
39022;SDS011;25908;51.984;5.928;2022-12-18T08:04:09;21.85;;;11.48;;
39022;SDS011;25908;51.984;5.928;2022-12-18T08:06:35;21.67;;;12.10;;
39022;SDS011;25908;51.984;5.928;2022-12-18T08:09:00;21.08;;;11.25;;
39022;SDS011;25908;51.984;5.928;2022-12-18T08:11:27;23.40;;;12.30;;
39022;SDS011;25908;51.984;5.928;2022-12-18T08:13:53;23.38;;;11.55;;
39022;SDS011;25908;51.984;5.928;2022-12-18T08:16:20;21.30;;;11.48;;
39022;SDS011;25908;51.984;5.928;2022-12-18T08:18:47;23.23;;;13.73;;
39022;SDS011;25908;51.984;5.928;2022-12-18T08:21:14;21.23;;;11.07;;
39022;SDS011;25908;51.984;5.928;2022-12-18T08:23:42;22.63;;;11.73;;
39022;SDS011;25908;51.984;5.928;2022-12-18T08:26:07;20.38;;;11.27;;
39022;SDS011;25908;51.984;5.928;2022-12-18T08:28:34;20.75;;;11.30;;
39022;SDS011;25908;51.984;5.928;2022-12-18T08:30:59;18.08;;;10.63;;
39022;SDS011;25908;51.984;5.928;2022-12-18T08:33:25;21.30;;;12.20;;
39022;SDS011;25908;51.984;5.928;2022-12-18T08:35:51;22.00;;;11.95;;
39022;SDS011;25908;51.984;5.928;2022-12-18T08:38:17;22.40;;;12.18;;
39022;SDS011;25908;51.984;5.928;2022-12-18T08:40:43;21.73;;;13.05;;
39022;SDS011;25908;51.984;5.928;2022-12-18T08:43:11;21.80;;;11.55;;
39022;SDS011;25908;51.984;5.928;2022-12-18T08:45:56;27.15;;;14.50;;
39022;SDS011;25908;51.984;5.928;2022-12-18T08:48:22;23.95;;;12.63;;
39022;SDS011;25908;51.984;5.928;2022-12-18T08:50:57;21.30;;;11.38;;
39022;SDS011;25908;51.984;5.928;2022-12-18T08:53:23;21.85;;;11.45;;
39022;SDS011;25908;51.984;5.928;2022-12-18T08:55:49;22.52;;;11.80;;
39022;SDS011;25908;51.984;5.928;2022-12-18T08:58:15;19.38;;;10.15;;
39022;SDS011;25908;51.984;5.928;2022-12-18T09:00:40;17.85;;;10.60;;
39022;SDS011;25908;51.984;5.928;2022-12-18T09:03:10;24.17;;;11.35;;
39022;SDS011;25908;51.984;5.928;2022-12-18T09:05:37;18.02;;;8.98;;
39022;SDS011;25908;51.984;5.928;2022-12-18T09:08:03;17.85;;;10.13;;
39022;SDS011;25908;51.984;5.928;2022-12-18T09:10:28;19.80;;;11.07;;
39022;SDS011;25908;51.984;5.928;2022-12-18T09:12:54;20.05;;;11.05;;
39022;SDS011;25908;51.984;5.928;2022-12-18T09:15:21;15.68;;;8.88;;
39022;SDS011;25908;51.984;5.928;2022-12-18T09:17:46;17.90;;;9.43;;
39022;SDS011;25908;51.984;5.928;2022-12-18T09:20:13;17.42;;;11.07;;
39022;SDS011;25908;51.984;5.928;2022-12-18T09:22:38;15.20;;;9.23;;
39022;SDS011;25908;51.984;5.928;2022-12-18T09:25:04;17.27;;;9.98;;
39022;SDS011;25908;51.984;5.928;2022-12-18T09:27:32;14.95;;;8.73;;
39022;SDS011;25908;51.984;5.928;2022-12-18T09:29:58;17.33;;;9.82;;
39022;SDS011;25908;51.984;5.928;2022-12-18T09:32:24;18.05;;;9.70;;
39022;SDS011;25908;51.984;5.928;2022-12-18T09:34:50;18.88;;;9.85;;
39022;SDS011;25908;51.984;5.928;2022-12-18T09:37:15;15.43;;;8.85;;
39022;SDS011;25908;51.984;5.928;2022-12-18T09:39:41;17.20;;;10.43;;
39022;SDS011;25908;51.984;5.928;2022-12-18T09:42:06;17.30;;;9.68;;
39022;SDS011;25908;51.984;5.928;2022-12-18T09:44:43;14.70;;;8.55;;
39022;SDS011;25908;51.984;5.928;2022-12-18T09:50:26;19.70;;;10.57;;
39022;SDS011;25908;51.984;5.928;2022-12-18T09:52:59;17.20;;;9.10;;
39022;SDS011;25908;51.984;5.928;2022-12-18T09:58:45;15.80;;;8.82;;
39022;SDS011;25908;51.984;5.928;2022-12-18T10:00:52;16.63;;;9.32;;
39022;SDS011;25908;51.984;5.928;2022-12-18T10:03:18;18.10;;;8.77;;
39022;SDS011;25908;51.984;5.928;2022-12-18T10:11:03;17.75;;;9.05;;
39022;SDS011;25908;51.984;5.928;2022-12-18T10:13:45;17.63;;;9.57;;
39022;SDS011;25908;51.984;5.928;2022-12-18T10:16:23;15.55;;;8.73;;
39022;SDS011;25908;51.984;5.928;2022-12-18T10:18:56;19.10;;;10.07;;
39022;SDS011;25908;51.984;5.928;2022-12-18T10:21:34;22.90;;;11.00;;
39022;SDS011;25908;51.984;5.928;2022-12-18T10:26:29;19.45;;;9.00;;
39022;SDS011;25908;51.984;5.928;2022-12-18T10:28:57;17.45;;;8.90;;
39022;SDS011;25908;51.984;5.928;2022-12-18T10:31:24;16.75;;;10.05;;
39022;SDS011;25908;51.984;5.928;2022-12-18T10:33:50;17.17;;;9.20;;
39022;SDS011;25908;51.984;5.928;2022-12-18T10:36:16;16.42;;;9.07;;
39022;SDS011;25908;51.984;5.928;2022-12-18T10:38:42;18.00;;;9.65;;
39022;SDS011;25908;51.984;5.928;2022-12-18T10:43:42;17.63;;;9.73;;
39022;SDS011;25908;51.984;5.928;2022-12-18T10:48:34;16.38;;;9.32;;
39022;SDS011;25908;51.984;5.928;2022-12-18T10:51:05;18.15;;;9.95;;
39022;SDS011;25908;51.984;5.928;2022-12-18T10:53:32;17.60;;;9.60;;
39022;SDS011;25908;51.984;5.928;2022-12-18T10:56:00;19.25;;;9.57;;
39022;SDS011;25908;51.984;5.928;2022-12-18T10:58:31;15.73;;;9.02;;
39022;SDS011;25908;51.984;5.928;2022-12-18T11:03:31;19.35;;;9.40;;
39022;SDS011;25908;51.984;5.928;2022-12-18T11:06:07;18.83;;;9.85;;
39022;SDS011;25908;51.984;5.928;2022-12-18T11:08:38;23.10;;;12.38;;
39022;SDS011;25908;51.984;5.928;2022-12-18T11:11:07;17.70;;;10.38;;
39022;SDS011;25908;51.984;5.928;2022-12-18T11:16:24;20.10;;;10.27;;
39022;SDS011;25908;51.984;5.928;2022-12-18T11:18:50;19.45;;;10.00;;
39022;SDS011;25908;51.984;5.928;2022-12-18T11:21:16;22.85;;;11.27;;
39022;SDS011;25908;51.984;5.928;2022-12-18T11:23:47;20.17;;;10.38;;
39022;SDS011;25908;51.984;5.928;2022-12-18T11:26:17;17.85;;;10.40;;
39022;SDS011;25908;51.984;5.928;2022-12-18T11:31:19;17.77;;;10.10;;
39022;SDS011;25908;51.984;5.928;2022-12-18T11:34:09;21.77;;;12.73;;
39022;SDS011;25908;51.984;5.928;2022-12-18T11:36:58;18.07;;;10.23;;
39022;SDS011;25908;51.984;5.928;2022-12-18T11:39:36;21.23;;;11.68;;
39022;SDS011;25908;51.984;5.928;2022-12-18T11:42:12;21.35;;;10.95;;
39022;SDS011;25908;51.984;5.928;2022-12-18T11:45:03;19.63;;;10.20;;
39022;SDS011;25908;51.984;5.928;2022-12-18T11:47:30;20.70;;;11.02;;
39022;SDS011;25908;51.984;5.928;2022-12-18T11:50:10;17.85;;;10.23;;
39022;SDS011;25908;51.984;5.928;2022-12-18T11:52:42;19.02;;;10.35;;
39022;SDS011;25908;51.984;5.928;2022-12-18T11:55:11;19.73;;;10.48;;
39022;SDS011;25908;51.984;5.928;2022-12-18T11:57:58;17.60;;;9.93;;
39022;SDS011;25908;51.984;5.928;2022-12-18T12:00:47;19.00;;;10.25;;
39022;SDS011;25908;51.984;5.928;2022-12-18T12:03:38;18.17;;;9.57;;
39022;SDS011;25908;51.984;5.928;2022-12-18T12:09:01;21.88;;;10.80;;
39022;SDS011;25908;51.984;5.928;2022-12-18T12:17:04;17.40;;;10.15;;
39022;SDS011;25908;51.984;5.928;2022-12-18T12:19:54;17.17;;;10.40;;
39022;SDS011;25908;51.984;5.928;2022-12-18T12:30:50;18.23;;;10.90;;
39022;SDS011;25908;51.984;5.928;2022-12-18T12:33:22;16.83;;;10.35;;
39022;SDS011;25908;51.984;5.928;2022-12-18T12:38:54;19.50;;;9.80;;
39022;SDS011;25908;51.984;5.928;2022-12-18T12:41:25;22.48;;;12.20;;
39022;SDS011;25908;51.984;5.928;2022-12-18T12:44:15;21.20;;;11.30;;
39022;SDS011;25908;51.984;5.928;2022-12-18T12:47:15;20.17;;;10.88;;
39022;SDS011;25908;51.984;5.928;2022-12-18T12:49:50;17.50;;;9.95;;
39022;SDS011;25908;51.984;5.928;2022-12-18T12:52:27;18.90;;;10.13;;
39022;SDS011;25908;51.984;5.928;2022-12-18T12:54:53;20.92;;;11.52;;
39022;SDS011;25908;51.984;5.928;2022-12-18T12:57:22;19.08;;;10.77;;
39022;SDS011;25908;51.984;5.928;2022-12-18T13:00:09;20.23;;;12.20;;
39022;SDS011;25908;51.984;5.928;2022-12-18T13:02:52;21.77;;;11.55;;
39022;SDS011;25908;51.984;5.928;2022-12-18T13:05:53;22.30;;;12.63;;
39022;SDS011;25908;51.984;5.928;2022-12-18T13:08:28;22.75;;;12.82;;
39022;SDS011;25908;51.984;5.928;2022-12-18T13:10:56;26.50;;;13.63;;
39022;SDS011;25908;51.984;5.928;2022-12-18T13:13:48;22.00;;;11.23;;
39022;SDS011;25908;51.984;5.928;2022-12-18T13:16:18;38.40;;;21.70;;
39022;SDS011;25908;51.984;5.928;2022-12-18T13:18:52;20.25;;;12.65;;
39022;SDS011;25908;51.984;5.928;2022-12-18T13:24:32;25.48;;;14.45;;
39022;SDS011;25908;51.984;5.928;2022-12-18T13:26:53;23.17;;;12.18;;
39022;SDS011;25908;51.984;5.928;2022-12-18T13:29:40;20.88;;;11.50;;
39022;SDS011;25908;51.984;5.928;2022-12-18T13:32:19;24.00;;;13.45;;
39022;SDS011;25908;51.984;5.928;2022-12-18T13:34:46;24.80;;;12.02;;
39022;SDS011;25908;51.984;5.928;2022-12-18T13:39:56;21.80;;;12.55;;
39022;SDS011;25908;51.984;5.928;2022-12-18T13:48:03;55.28;;;34.13;;
39022;SDS011;25908;51.984;5.928;2022-12-18T13:50:30;28.80;;;17.95;;
39022;SDS011;25908;51.984;5.928;2022-12-18T13:52:55;25.08;;;12.95;;
39022;SDS011;25908;51.984;5.928;2022-12-18T13:55:22;23.52;;;12.25;;
39022;SDS011;25908;51.984;5.928;2022-12-18T13:57:48;26.27;;;15.18;;
39022;SDS011;25908;51.984;5.928;2022-12-18T14:02:53;25.52;;;12.90;;
39022;SDS011;25908;51.984;5.928;2022-12-18T14:05:29;27.23;;;16.30;;
39022;SDS011;25908;51.984;5.928;2022-12-18T14:08:08;21.80;;;12.57;;
39022;SDS011;25908;51.984;5.928;2022-12-18T14:10:41;23.88;;;14.95;;
39022;SDS011;25908;51.984;5.928;2022-12-18T14:15:41;18.48;;;10.98;;
39022;SDS011;25908;51.984;5.928;2022-12-18T14:21:17;20.15;;;10.50;;
39022;SDS011;25908;51.984;5.928;2022-12-18T14:24:13;20.55;;;12.20;;
39022;SDS011;25908;51.984;5.928;2022-12-18T14:26:42;22.25;;;11.23;;
39022;SDS011;25908;51.984;5.928;2022-12-18T14:29:41;19.42;;;11.82;;
39022;SDS011;25908;51.984;5.928;2022-12-18T14:32:04;20.67;;;10.98;;
39022;SDS011;25908;51.984;5.928;2022-12-18T14:34:38;23.30;;;12.07;;
39022;SDS011;25908;51.984;5.928;2022-12-18T14:37:05;20.95;;;11.65;;
39022;SDS011;25908;51.984;5.928;2022-12-18T14:39:34;19.85;;;11.48;;
39022;SDS011;25908;51.984;5.928;2022-12-18T14:41:59;19.65;;;11.23;;
39022;SDS011;25908;51.984;5.928;2022-12-18T14:44:25;18.48;;;11.90;;
39022;SDS011;25908;51.984;5.928;2022-12-18T14:46:50;19.33;;;11.27;;
39022;SDS011;25908;51.984;5.928;2022-12-18T14:49:18;19.95;;;11.32;;
39022;SDS011;25908;51.984;5.928;2022-12-18T14:51:49;20.33;;;11.40;;
39022;SDS011;25908;51.984;5.928;2022-12-18T14:54:20;23.80;;;11.35;;
39022;SDS011;25908;51.984;5.928;2022-12-18T14:56:47;19.35;;;11.63;;
39022;SDS011;25908;51.984;5.928;2022-12-18T14:59:23;23.98;;;13.25;;
39022;SDS011;25908;51.984;5.928;2022-12-18T15:04:30;21.10;;;12.23;;
39022;SDS011;25908;51.984;5.928;2022-12-18T15:07:08;23.02;;;12.52;;
39022;SDS011;25908;51.984;5.928;2022-12-18T15:09:43;21.20;;;12.00;;
39022;SDS011;25908;51.984;5.928;2022-12-18T15:12:34;21.00;;;12.23;;
39022;SDS011;25908;51.984;5.928;2022-12-18T15:15:41;20.90;;;13.00;;
39022;SDS011;25908;51.984;5.928;2022-12-18T15:20:39;22.83;;;12.52;;
39022;SDS011;25908;51.984;5.928;2022-12-18T15:23:20;23.65;;;13.10;;
39022;SDS011;25908;51.984;5.928;2022-12-18T15:28:35;23.55;;;13.75;;
39022;SDS011;25908;51.984;5.928;2022-12-18T15:33:40;29.45;;;17.13;;
39022;SDS011;25908;51.984;5.928;2022-12-18T15:36:24;22.95;;;13.98;;
39022;SDS011;25908;51.984;5.928;2022-12-18T15:39:01;24.13;;;14.10;;
39022;SDS011;25908;51.984;5.928;2022-12-18T15:41:28;24.92;;;14.50;;
39022;SDS011;25908;51.984;5.928;2022-12-18T15:43:57;25.80;;;14.73;;
39022;SDS011;25908;51.984;5.928;2022-12-18T15:46:23;23.98;;;14.55;;
39022;SDS011;25908;51.984;5.928;2022-12-18T15:48:53;25.35;;;14.77;;
39022;SDS011;25908;51.984;5.928;2022-12-18T15:51:24;30.77;;;17.05;;
39022;SDS011;25908;51.984;5.928;2022-12-18T15:53:54;25.70;;;15.73;;
39022;SDS011;25908;51.984;5.928;2022-12-18T15:56:22;27.05;;;15.25;;
39022;SDS011;25908;51.984;5.928;2022-12-18T15:59:10;24.65;;;14.98;;
39022;SDS011;25908;51.984;5.928;2022-12-18T16:01:41;31.35;;;17.48;;
39022;SDS011;25908;51.984;5.928;2022-12-18T16:04:13;30.88;;;17.52;;
39022;SDS011;25908;51.984;5.928;2022-12-18T16:06:40;35.58;;;19.98;;
39022;SDS011;25908;51.984;5.928;2022-12-18T16:09:06;39.70;;;22.23;;
39022;SDS011;25908;51.984;5.928;2022-12-18T16:11:32;36.50;;;19.75;;
39022;SDS011;25908;51.984;5.928;2022-12-18T16:16:47;31.77;;;17.52;;
39022;SDS011;25908;51.984;5.928;2022-12-18T16:19:14;37.10;;;21.20;;
39022;SDS011;25908;51.984;5.928;2022-12-18T16:21:41;40.35;;;21.40;;
39022;SDS011;25908;51.984;5.928;2022-12-18T16:24:17;34.67;;;19.17;;
39022;SDS011;25908;51.984;5.928;2022-12-18T16:26:43;31.35;;;18.67;;
39022;SDS011;25908;51.984;5.928;2022-12-18T16:29:10;30.67;;;17.23;;
39022;SDS011;25908;51.984;5.928;2022-12-18T16:31:36;29.88;;;16.13;;
39022;SDS011;25908;51.984;5.928;2022-12-18T16:34:19;26.80;;;15.75;;
39022;SDS011;25908;51.984;5.928;2022-12-18T16:36:47;35.15;;;19.67;;
39022;SDS011;25908;51.984;5.928;2022-12-18T16:39:13;33.72;;;18.08;;